Terminal Aerodrome Forecast
Issued by NWS

Home | Current Version | Previous Version | Text Only | Print | Product List | Glossary On
Versions: 1 2 3 4 5 6 7 8 9 10 11 12 13 14 15 16
000
FTAK31 PAJN 272300
TAFAKT
TAF
PAKT 272327Z 2800/2824 32005KT P6SM VCSH SCT035 SCT070
     FM280300 VRB05KT P6SM SCT035 SCT070
     FM281000 VRB05KT P6SM FEW005 SCT070
     FM281400 VRB04KT P6SM SCT040 BKN070
     FM281700 13007KT P6SM FEW010 BKN035 OVC070 PROB30 2821/2824 -RA
      AMD LTD TO CLD VIS AND WIND 2806/2815=

USA.gov is the U.S. government's official web portal to all federal, state and local government web resources and services.